createdAt,value
2023-01-26T00:01:15.151Z,98768.03
2023-01-26T00:03:42.834Z,98760.59
2023-01-26T00:06:13.080Z,98763.28
2023-01-26T00:08:41.925Z,98770.00
2023-01-26T00:11:11.451Z,98764.91
2023-01-26T00:13:38.932Z,98767.59
2023-01-26T00:16:10.021Z,98760.00
2023-01-26T00:18:38.967Z,98766.66
2023-01-26T00:21:07.326Z,98757.69
2023-01-26T00:23:36.689Z,98764.63
2023-01-26T00:26:06.608Z,98756.94
2023-01-26T00:28:33.604Z,98751.94
2023-01-26T00:31:22.436Z,98743.50
2023-01-26T00:33:49.570Z,98750.56
2023-01-26T00:36:16.418Z,98742.69
2023-01-26T00:38:43.462Z,98742.47
2023-01-26T00:41:30.695Z,98744.22
2023-01-26T00:43:57.936Z,98735.19
2023-01-26T00:46:24.889Z,98731.00
2023-01-26T00:48:51.797Z,98737.91
2023-01-26T00:51:18.807Z,98729.09
2023-01-26T00:53:45.741Z,98734.94
2023-01-26T00:56:14.863Z,98728.06
2023-01-26T00:58:43.174Z,98722.13
2023-01-26T01:01:11.587Z,98722.34
2023-01-26T01:03:42.311Z,98722.22
2023-01-26T01:06:09.209Z,98713.53
2023-01-26T01:08:36.170Z,98706.34
2023-01-26T01:11:09.170Z,98702.00
2023-01-26T01:13:36.164Z,98697.81
2023-01-26T01:16:11.936Z,98695.41
2023-01-26T01:18:39.246Z,98697.09
2023-01-26T01:21:07.948Z,98697.88
2023-01-26T01:23:35.044Z,98694.16
2023-01-26T01:26:02.593Z,98690.81
2023-01-26T01:28:29.726Z,98685.59
2023-01-26T01:30:56.642Z,98690.19
2023-01-26T01:33:24.186Z,98691.88
2023-01-26T01:35:58.414Z,98694.25
2023-01-26T01:38:26.556Z,98688.94
2023-01-26T01:40:54.435Z,98694.94
2023-01-26T01:43:22.113Z,98701.72
2023-01-26T01:45:50.433Z,98693.44
2023-01-26T01:48:46.124Z,98678.84
2023-01-26T01:51:18.623Z,98680.59
2023-01-26T01:53:50.083Z,98691.44
2023-01-26T01:56:23.353Z,98688.81
2023-01-26T01:58:54.035Z,98686.09
2023-01-26T02:01:21.347Z,98686.06
2023-01-26T02:03:52.142Z,98680.91
2023-01-26T02:06:47.595Z,98677.19
2023-01-26T02:09:36.008Z,98677.69
2023-01-26T02:12:06.027Z,98680.09
2023-01-26T02:14:33.878Z,98680.03
2023-01-26T02:17:00.758Z,98685.88
2023-01-26T02:19:33.160Z,98667.94
2023-01-26T02:22:08.684Z,98667.03
2023-01-26T02:24:38.895Z,98667.78
2023-01-26T02:27:06.571Z,98661.53
2023-01-26T02:29:34.175Z,98660.69
2023-01-26T02:32:01.007Z,98654.63
2023-01-26T02:34:29.048Z,98650.63
2023-01-26T02:36:58.046Z,98639.69
2023-01-26T02:39:45.325Z,98638.53
2023-01-26T02:42:31.204Z,98638.56
2023-01-26T02:44:58.455Z,98637.19
2023-01-26T02:47:25.513Z,98638.72
2023-01-26T02:49:52.409Z,98628.28
2023-01-26T02:52:27.177Z,98617.22
2023-01-26T02:55:17.456Z,98613.81
2023-01-26T02:57:45.020Z,98617.00
2023-01-26T03:00:17.868Z,98620.66
2023-01-26T03:02:48.321Z,98622.25
2023-01-26T03:05:15.477Z,98627.03
2023-01-26T03:07:42.637Z,98630.88
2023-01-26T03:10:10.962Z,98633.66
2023-01-26T03:12:38.582Z,98632.94
2023-01-26T03:15:24.870Z,98621.94
2023-01-26T03:17:52.039Z,98612.09
2023-01-26T03:20:37.525Z,98611.22
2023-01-26T03:23:22.825Z,98614.25
2023-01-26T03:26:25.481Z,98619.41
2023-01-26T03:28:52.393Z,98617.00
2023-01-26T03:31:19.455Z,98601.00
2023-01-26T03:33:47.543Z,98595.09
2023-01-26T03:36:14.429Z,98597.81
2023-01-26T03:38:41.455Z,98608.16
2023-01-26T03:41:27.014Z,98610.47
2023-01-26T03:44:12.523Z,98620.75
2023-01-26T03:46:57.914Z,98619.84
2023-01-26T03:49:43.465Z,98619.97
2023-01-26T03:52:28.705Z,98612.31
2023-01-26T03:55:14.308Z,98608.84
2023-01-26T03:57:41.184Z,98623.22
2023-01-26T04:00:09.421Z,98608.66
2023-01-26T04:02:57.734Z,98611.28
2023-01-26T04:05:43.523Z,98605.16
2023-01-26T04:08:28.576Z,98602.47
2023-01-26T04:10:58.116Z,98595.69
2023-01-26T04:13:44.278Z,98599.88
2023-01-26T04:16:38.117Z,98594.69
2023-01-26T04:19:24.004Z,98602.50
2023-01-26T04:21:51.063Z,98601.19
2023-01-26T04:24:22.644Z,98591.41
2023-01-26T04:26:54.344Z,98594.91
2023-01-26T04:29:25.712Z,98596.63
2023-01-26T04:31:52.734Z,98601.19
2023-01-26T04:34:22.153Z,98592.78
2023-01-26T04:36:49.633Z,98602.13
2023-01-26T04:39:18.116Z,98604.59
2023-01-26T04:41:48.563Z,98596.97
2023-01-26T04:44:17.119Z,98602.06
2023-01-26T04:46:44.515Z,98591.97
2023-01-26T04:49:13.485Z,98591.53
2023-01-26T04:51:40.701Z,98606.84
2023-01-26T04:54:08.333Z,98593.03
2023-01-26T04:56:39.192Z,98590.59
2023-01-26T04:59:07.984Z,98609.31
2023-01-26T05:01:37.669Z,98600.13
2023-01-26T05:04:07.700Z,98598.16
2023-01-26T05:06:36.292Z,98596.69
2023-01-26T05:09:03.508Z,98592.38
2023-01-26T05:11:32.485Z,98591.00
2023-01-26T05:14:08.474Z,98585.59
2023-01-26T05:16:55.658Z,98590.19
2023-01-26T05:19:41.150Z,98584.44
2023-01-26T05:22:28.052Z,98588.66
2023-01-26T05:25:13.966Z,98586.94
2023-01-26T05:27:48.291Z,98572.44
2023-01-26T05:30:16.143Z,98578.31
2023-01-26T05:32:43.426Z,98581.41
2023-01-26T05:35:12.425Z,98582.06
2023-01-26T05:37:42.407Z,98583.00
2023-01-26T05:40:12.228Z,98592.72
2023-01-26T05:42:40.267Z,98590.13
2023-01-26T05:45:19.786Z,98593.41
2023-01-26T05:47:48.837Z,98585.28
2023-01-26T05:50:16.323Z,98588.34
2023-01-26T05:52:46.651Z,98589.88
2023-01-26T05:55:14.291Z,98584.72
2023-01-26T05:57:41.640Z,98581.22
2023-01-26T06:00:11.899Z,98586.78
2023-01-26T06:02:48.588Z,98589.88
2023-01-26T06:05:17.173Z,98587.88
2023-01-26T06:07:45.725Z,98591.09
2023-01-26T06:10:19.561Z,98588.34
2023-01-26T06:13:06.649Z,98576.72
2023-01-26T06:15:39.755Z,98578.47
2023-01-26T06:18:06.801Z,98576.91
2023-01-26T06:20:34.351Z,98582.63
2023-01-26T06:23:02.154Z,98575.22
2023-01-26T06:25:31.972Z,98576.41
2023-01-26T06:27:59.168Z,98573.69
2023-01-26T06:30:27.919Z,98570.59
2023-01-26T06:33:00.332Z,98566.94
2023-01-26T06:35:28.704Z,98566.25
2023-01-26T06:37:59.421Z,98568.38
2023-01-26T06:40:26.384Z,98569.41
2023-01-26T06:42:53.401Z,98566.81
2023-01-26T06:45:20.859Z,98566.47
2023-01-26T06:47:51.213Z,98575.28
2023-01-26T06:50:25.379Z,98572.56
2023-01-26T06:52:55.873Z,98565.41
2023-01-26T06:55:41.879Z,98568.66
2023-01-26T06:58:33.367Z,98562.84
2023-01-26T07:01:25.176Z,98561.13
2023-01-26T07:03:54.173Z,98557.66
2023-01-26T07:06:21.511Z,98547.19
2023-01-26T07:08:48.460Z,98551.13
2023-01-26T07:11:16.940Z,98544.22
2023-01-26T07:13:43.909Z,98539.34
2023-01-26T07:16:12.795Z,98539.81
2023-01-26T07:18:39.907Z,98546.75
2023-01-26T07:21:10.810Z,98546.75
2023-01-26T07:23:38.004Z,98547.63
2023-01-26T07:26:06.083Z,98546.28
2023-01-26T07:28:34.396Z,98543.81
2023-01-26T07:31:02.832Z,98542.91
2023-01-26T07:33:30.289Z,98533.00
2023-01-26T07:35:57.906Z,98531.94
2023-01-26T07:38:26.388Z,98533.94
2023-01-26T07:40:53.400Z,98532.19
2023-01-26T07:43:20.319Z,98527.28
2023-01-26T07:45:53.624Z,98525.13
2023-01-26T07:48:22.430Z,98529.72
2023-01-26T07:50:49.744Z,98520.16
2023-01-26T07:53:23.100Z,98517.16
2023-01-26T07:55:50.300Z,98512.22
2023-01-26T07:58:18.760Z,98517.84
2023-01-26T08:00:47.297Z,98506.28
2023-01-26T08:03:14.646Z,98507.13
2023-01-26T08:05:43.326Z,98501.75
2023-01-26T08:08:10.703Z,98500.41
2023-01-26T08:10:38.307Z,98508.00
2023-01-26T08:13:05.233Z,98501.72
2023-01-26T08:15:32.220Z,98504.06
2023-01-26T08:17:59.260Z,98506.59
2023-01-26T08:20:26.185Z,98497.56
2023-01-26T08:22:54.048Z,98507.84
2023-01-26T08:25:20.895Z,98519.09
2023-01-26T08:27:47.933Z,98515.91
2023-01-26T08:30:15.966Z,98522.59
2023-01-26T08:32:42.871Z,98519.59
2023-01-26T08:35:10.377Z,98522.41
2023-01-26T08:37:37.363Z,98527.53
2023-01-26T08:40:04.572Z,98515.19
2023-01-26T08:42:32.262Z,98512.28
2023-01-26T08:44:59.254Z,98499.19
2023-01-26T08:47:26.217Z,98503.59
2023-01-26T08:49:53.092Z,98494.78
2023-01-26T08:52:21.753Z,98491.44
2023-01-26T08:54:48.659Z,98488.06
2023-01-26T08:57:15.668Z,98489.41
2023-01-26T08:59:42.588Z,98484.44
2023-01-26T09:02:11.241Z,98478.47
2023-01-26T09:04:38.332Z,98483.47
2023-01-26T09:07:06.173Z,98472.19
2023-01-26T09:09:33.031Z,98468.66
2023-01-26T09:11:59.939Z,98456.22
2023-01-26T09:14:27.598Z,98463.09
2023-01-26T09:16:54.551Z,98459.44
2023-01-26T09:19:21.800Z,98447.78
2023-01-26T09:21:53.860Z,98448.81
2023-01-26T09:24:21.843Z,98438.81
2023-01-26T09:26:48.879Z,98439.22
2023-01-26T09:29:16.735Z,98435.03
2023-01-26T09:31:43.933Z,98430.25
2023-01-26T09:34:10.992Z,98417.72
2023-01-26T09:36:39.809Z,98427.00
2023-01-26T09:39:08.525Z,98420.19
2023-01-26T09:42:02.271Z,98406.28
2023-01-26T09:44:34.023Z,98407.78
2023-01-26T10:17:42.450Z,98354.94
2023-01-26T10:20:31.345Z,98354.31
2023-01-26T10:23:16.544Z,98345.97
2023-01-26T10:25:47.009Z,98342.13
2023-01-26T10:28:16.466Z,98334.53
2023-01-26T10:30:45.168Z,98333.91
2023-01-26T10:33:33.149Z,98318.09
2023-01-26T10:36:01.188Z,98321.00
2023-01-26T10:38:34.146Z,98325.88
2023-01-26T10:41:03.871Z,98317.63
2023-01-26T10:43:50.217Z,98310.34
2023-01-26T10:46:38.262Z,98291.91
2023-01-26T10:49:14.703Z,98297.88
2023-01-26T10:51:48.053Z,98297.38
2023-01-26T10:54:24.216Z,98309.22
2023-01-26T10:56:56.764Z,98304.94
2023-01-26T10:59:34.432Z,98316.81
2023-01-26T11:02:01.367Z,98308.09
2023-01-26T11:04:28.947Z,98296.06
2023-01-26T11:06:56.245Z,98296.28
2023-01-26T11:09:28.546Z,98291.59
2023-01-26T11:12:01.185Z,98284.63
2023-01-26T11:14:29.496Z,98283.84
2023-01-26T11:17:05.279Z,98288.63
2023-01-26T11:19:52.475Z,98282.16
2023-01-26T11:22:44.488Z,98288.28
2023-01-26T11:25:22.688Z,98277.97
2023-01-26T11:28:13.697Z,98288.47
2023-01-26T11:31:09.151Z,98287.72
2023-01-26T11:33:42.435Z,98287.97
2023-01-26T11:36:34.513Z,98278.22
2023-01-26T11:39:25.180Z,98272.75
2023-01-26T11:42:21.361Z,98272.94
2023-01-26T11:44:58.497Z,98272.56
2023-01-26T11:47:40.938Z,98275.81
2023-01-26T11:50:17.992Z,98257.47
2023-01-26T11:53:24.186Z,98265.25
2023-01-26T11:55:58.097Z,98265.50
2023-01-26T11:58:33.976Z,98269.44
2023-01-26T12:01:05.628Z,98265.63
2023-01-26T12:03:46.742Z,98263.28
2023-01-26T12:06:25.675Z,98265.31
2023-01-26T12:08:58.545Z,98269.47
2023-01-26T12:11:40.885Z,98253.31
2023-01-26T12:14:17.560Z,98263.66
2023-01-26T12:17:02.100Z,98250.94
2023-01-26T12:19:48.420Z,98252.22
2023-01-26T12:22:36.470Z,98248.59
2023-01-26T12:25:31.314Z,98255.03
2023-01-26T12:28:21.091Z,98248.78
2023-01-26T12:31:10.245Z,98248.44
2023-01-26T12:33:38.705Z,98250.81
2023-01-26T12:36:20.411Z,98252.34
2023-01-26T12:39:00.223Z,98244.13
2023-01-26T12:42:02.251Z,98237.31
2023-01-26T12:44:42.047Z,98233.38
2023-01-26T12:47:36.530Z,98232.75
2023-01-26T12:50:12.489Z,98234.69
2023-01-26T12:52:57.125Z,98224.34
2023-01-26T12:55:37.054Z,98230.00
2023-01-26T12:58:27.368Z,98233.13
2023-01-26T13:01:16.116Z,98222.22
2023-01-26T13:03:56.361Z,98221.41
2023-01-26T13:06:26.104Z,98206.81
2023-01-26T13:09:04.620Z,98209.22
2023-01-26T13:11:54.843Z,98208.84
2023-01-26T13:14:25.879Z,98204.63
2023-01-26T13:16:53.129Z,98195.34
2023-01-26T13:19:53.564Z,98186.16
2023-01-26T13:22:26.297Z,98177.75
2023-01-26T13:24:56.071Z,98175.41
2023-01-26T13:27:37.735Z,98174.75
2023-01-26T13:30:27.769Z,98167.19
2023-01-26T13:33:05.091Z,98157.72
2023-01-26T13:35:32.203Z,98164.38
2023-01-26T13:38:17.663Z,98165.69
2023-01-26T13:40:50.081Z,98161.41
2023-01-26T13:43:28.061Z,98167.16
2023-01-26T13:46:37.132Z,98164.69
2023-01-26T13:49:04.127Z,98170.59
2023-01-26T13:51:35.996Z,98160.88
2023-01-26T13:54:18.036Z,98170.31
2023-01-26T13:57:07.486Z,98163.34
2023-01-26T13:59:34.598Z,98161.63
2023-01-26T14:02:01.927Z,98161.06
2023-01-26T14:04:32.169Z,98147.47
2023-01-26T14:07:03.539Z,98142.19
2023-01-26T14:09:51.233Z,98136.63
2023-01-26T14:12:23.886Z,98147.19
2023-01-26T14:14:57.002Z,98144.47
2023-01-26T14:17:29.940Z,98147.00
2023-01-26T14:19:59.966Z,98135.97
2023-01-26T14:22:28.239Z,98132.41
2023-01-26T14:24:55.839Z,98134.06
2023-01-26T14:27:49.911Z,98132.69
2023-01-26T14:30:31.651Z,98133.75
2023-01-26T14:33:11.612Z,98133.56
2023-01-26T14:35:38.570Z,98131.06
2023-01-26T14:38:07.051Z,98136.50
2023-01-26T14:40:34.009Z,98137.19
2023-01-26T14:43:01.248Z,98137.25
2023-01-26T14:45:32.554Z,98135.72
2023-01-26T14:48:05.713Z,98124.88
2023-01-26T14:50:33.257Z,98141.81
2023-01-26T14:53:04.212Z,98132.84
2023-01-26T14:55:36.230Z,98136.78
2023-01-26T14:58:13.483Z,98132.63
2023-01-26T15:00:40.592Z,98139.97
2023-01-26T15:03:34.472Z,98127.09
2023-01-26T15:06:14.230Z,98134.00
2023-01-26T15:08:42.767Z,98126.69
2023-01-26T15:11:28.998Z,98123.25
2023-01-26T15:13:56.199Z,98121.38
2023-01-26T15:16:25.510Z,98107.19
2023-01-26T15:18:59.892Z,98110.13
2023-01-26T15:21:40.733Z,98107.25
2023-01-26T15:24:14.227Z,98104.41
2023-01-26T15:26:41.672Z,98104.50
2023-01-26T15:29:30.734Z,98100.38
2023-01-26T15:31:58.974Z,98098.41
2023-01-26T15:34:32.704Z,98099.53
2023-01-26T15:37:00.365Z,98094.38
2023-01-26T15:39:27.696Z,98095.53
2023-01-26T15:42:14.935Z,98087.38
2023-01-26T15:44:42.780Z,98093.06
2023-01-26T15:47:11.704Z,98082.25
2023-01-26T15:49:39.201Z,98085.19
2023-01-26T15:52:16.411Z,98081.28
2023-01-26T15:54:44.218Z,98083.66
2023-01-26T15:57:14.064Z,98093.44
2023-01-26T15:59:41.368Z,98085.84
2023-01-26T16:02:17.680Z,98078.84
2023-01-26T16:04:45.193Z,98084.06
2023-01-26T16:07:14.962Z,98078.75
2023-01-26T16:09:42.735Z,98074.81
2023-01-26T16:12:30.524Z,98069.78
2023-01-26T16:14:58.788Z,98079.91
2023-01-26T16:17:26.012Z,98073.28
2023-01-26T16:19:53.015Z,98076.28
2023-01-26T16:22:19.981Z,98083.44
2023-01-26T16:24:47.318Z,98071.69
2023-01-26T16:27:14.240Z,98074.63
2023-01-26T16:29:41.247Z,98064.09
2023-01-26T16:32:34.404Z,98061.38
2023-01-26T16:35:01.275Z,98056.31
2023-01-26T16:37:28.150Z,98051.97
2023-01-26T16:39:55.254Z,98045.09
2023-01-26T16:42:22.333Z,98048.25
2023-01-26T16:44:49.485Z,98034.50
2023-01-26T16:47:16.319Z,98036.66
2023-01-26T16:49:43.326Z,98048.94
2023-01-26T16:52:10.545Z,98033.50
2023-01-26T16:54:37.785Z,98036.00
2023-01-26T16:57:05.017Z,98036.38
2023-01-26T16:59:31.951Z,98033.38
2023-01-26T17:01:59.064Z,98037.94
2023-01-26T17:04:26.056Z,98027.31
2023-01-26T17:06:53.001Z,98030.88
2023-01-26T17:09:21.249Z,98034.28
2023-01-26T17:11:48.128Z,98024.44
2023-01-26T17:14:15.174Z,98024.81
2023-01-26T17:16:42.250Z,98018.84
2023-01-26T17:19:09.643Z,98013.19
2023-01-26T17:21:37.308Z,98003.44
2023-01-26T17:24:04.609Z,98001.28
2023-01-26T17:26:31.616Z,98003.84
2023-01-26T17:28:58.649Z,98003.56
2023-01-26T17:31:26.180Z,97994.72
2023-01-26T17:33:55.143Z,97981.72
2023-01-26T17:36:22.062Z,97984.47
2023-01-26T17:38:49.803Z,97986.03
2023-01-26T17:41:17.393Z,97974.56
2023-01-26T17:43:45.272Z,97976.69
2023-01-26T17:46:14.828Z,97964.97
2023-01-26T17:48:44.857Z,97968.97
2023-01-26T17:51:14.822Z,97963.97
2023-01-26T17:53:43.374Z,97967.72
2023-01-26T17:56:12.415Z,97962.34
2023-01-26T17:58:39.429Z,97960.69
2023-01-26T18:01:08.736Z,97958.09
2023-01-26T18:03:39.841Z,97948.28
2023-01-26T18:06:07.102Z,97944.03
2023-01-26T18:08:34.121Z,97941.41
2023-01-26T18:11:03.331Z,97935.47
2023-01-26T18:13:31.378Z,97932.97
2023-01-26T18:15:58.639Z,97933.47
2023-01-26T18:18:28.230Z,97940.69
2023-01-26T18:20:56.191Z,97930.16
2023-01-26T18:23:24.345Z,97930.03
2023-01-26T18:25:51.620Z,97935.84
2023-01-26T18:28:18.803Z,97937.63
2023-01-26T18:30:45.887Z,97930.25
2023-01-26T18:33:12.972Z,97928.84
2023-01-26T18:35:40.727Z,97925.19
2023-01-26T18:38:07.696Z,97935.47
2023-01-26T18:40:34.617Z,97920.69
2023-01-26T18:43:01.615Z,97922.81
2023-01-26T18:45:28.543Z,97932.28
2023-01-26T18:47:55.451Z,97923.50
2023-01-26T18:50:22.893Z,97915.81
2023-01-26T18:52:49.793Z,97915.56
2023-01-26T18:55:16.864Z,97918.66
2023-01-26T18:57:43.784Z,97919.34
2023-01-26T19:00:11.308Z,97904.09
2023-01-26T19:02:38.728Z,97898.63
2023-01-26T19:05:09.159Z,97897.31
2023-01-26T19:07:36.247Z,97902.19
2023-01-26T19:10:06.122Z,97896.97
2023-01-26T19:12:33.098Z,97882.94
2023-01-26T19:15:00.035Z,97881.31
2023-01-26T19:17:26.955Z,97882.13
2023-01-26T19:19:53.902Z,97880.63
2023-01-26T19:22:21.675Z,97881.50
2023-01-26T19:24:48.546Z,97886.03
2023-01-26T19:27:15.525Z,97876.22
2023-01-26T19:29:42.381Z,97875.75
2023-01-26T19:32:09.283Z,97868.47
2023-01-26T19:34:36.336Z,97861.84
2023-01-26T19:37:10.018Z,97856.88
2023-01-26T19:39:39.958Z,97847.53
2023-01-26T19:42:06.886Z,97829.50
2023-01-26T19:44:33.809Z,97827.13
2023-01-26T19:47:00.744Z,97816.09
2023-01-26T19:49:27.669Z,97821.78
2023-01-26T19:51:54.759Z,97808.53
2023-01-26T19:54:21.655Z,97813.97
2023-01-26T19:56:48.593Z,97815.28
2023-01-26T19:59:15.500Z,97820.53
2023-01-26T20:01:42.576Z,97813.50
2023-01-26T20:04:13.778Z,97816.13
2023-01-26T20:06:40.946Z,97802.94
2023-01-26T20:09:08.685Z,97816.69
2023-01-26T20:11:35.761Z,97807.44
2023-01-26T20:14:11.060Z,97807.94
2023-01-26T20:16:38.255Z,97823.25
2023-01-26T20:19:05.535Z,97828.19
2023-01-26T20:21:34.391Z,97827.84
2023-01-26T20:24:05.549Z,97825.84
2023-01-26T20:26:34.032Z,97832.72
2023-01-26T20:29:00.985Z,97825.59
2023-01-26T20:31:28.084Z,97809.38
2023-01-26T20:33:55.953Z,97809.47
2023-01-26T20:36:25.813Z,97812.31
2023-01-26T20:38:53.829Z,97810.72
2023-01-26T20:41:24.453Z,97807.13
2023-01-26T20:44:01.201Z,97795.13
2023-01-26T20:46:34.655Z,97788.59
2023-01-26T20:49:02.323Z,97776.53
2023-01-26T20:51:33.740Z,97767.78
2023-01-26T20:54:01.224Z,97755.94
2023-01-26T20:56:28.281Z,97741.00
2023-01-26T20:58:56.380Z,97738.81
2023-01-26T21:01:24.321Z,97729.41
2023-01-26T21:03:52.245Z,97734.28
2023-01-26T21:06:21.076Z,97719.94
2023-01-26T21:08:49.716Z,97708.19
2023-01-26T21:11:17.667Z,97705.94
2023-01-26T21:13:45.448Z,97704.38
2023-01-26T21:16:14.635Z,97683.41
2023-01-26T21:18:42.535Z,97663.41
2023-01-26T21:21:13.134Z,97671.22
2023-01-26T21:23:40.358Z,97656.25
2023-01-26T21:26:13.153Z,97651.97
2023-01-26T21:28:40.248Z,97642.91
2023-01-26T21:31:10.768Z,97635.88
2023-01-26T21:33:40.164Z,97660.38
2023-01-26T21:36:09.115Z,97661.84
2023-01-26T21:38:41.640Z,97666.94
2023-01-26T21:41:30.629Z,97665.31
2023-01-26T21:43:59.268Z,97670.25
2023-01-26T21:46:26.860Z,97663.72
2023-01-26T21:48:53.830Z,97659.97
2023-01-26T21:51:39.387Z,97652.72
2023-01-26T21:54:07.344Z,97644.66
2023-01-26T21:56:35.013Z,97643.81
2023-01-26T21:59:04.684Z,97630.56
2023-01-26T22:01:33.654Z,97635.31
2023-01-26T22:04:02.334Z,97646.72
2023-01-26T22:06:30.112Z,97636.06
2023-01-26T22:08:58.754Z,97645.50
2023-01-26T22:11:26.759Z,97631.97
2023-01-26T22:13:54.179Z,97631.06
2023-01-26T22:16:21.687Z,97623.66
2023-01-26T22:18:49.396Z,97618.97
2023-01-26T22:21:17.803Z,97609.47
2023-01-26T22:23:45.123Z,97600.19
2023-01-26T22:26:17.510Z,97597.81
2023-01-26T22:28:50.229Z,97591.25
2023-01-26T22:31:19.875Z,97597.06
2023-01-26T22:33:47.690Z,97594.88
2023-01-26T22:36:14.824Z,97592.41
2023-01-26T22:38:42.094Z,97578.69
2023-01-26T22:41:14.382Z,97578.22
2023-01-26T22:43:42.400Z,97537.00
2023-01-26T22:46:11.761Z,97516.97
2023-01-26T22:48:39.012Z,97517.56
2023-01-26T22:51:13.683Z,97510.09
2023-01-26T22:53:40.993Z,97505.47
2023-01-26T22:56:09.329Z,97512.78
2023-01-26T22:58:47.701Z,97518.78
2023-01-26T23:01:20.096Z,97513.00
2023-01-26T23:03:51.539Z,97495.78
2023-01-26T23:06:19.502Z,97497.69
2023-01-26T23:08:46.475Z,97506.31
2023-01-26T23:11:19.716Z,97507.06
2023-01-26T23:13:48.867Z,97507.72
2023-01-26T23:16:16.401Z,97527.81
2023-01-26T23:18:43.613Z,97515.03
2023-01-26T23:21:10.775Z,97506.53
2023-01-26T23:23:39.270Z,97514.06
2023-01-26T23:26:06.841Z,97507.97
2023-01-26T23:28:36.983Z,97501.22
2023-01-26T23:31:04.661Z,97509.69
2023-01-26T23:33:33.020Z,97499.91
2023-01-26T23:36:00.719Z,97509.06
2023-01-26T23:38:29.583Z,97509.88
2023-01-26T23:40:57.429Z,97502.63
2023-01-26T23:43:24.638Z,97498.44
2023-01-26T23:45:52.185Z,97494.19
2023-01-26T23:48:20.123Z,97510.94
2023-01-26T23:50:47.205Z,97500.16
2023-01-26T23:53:14.724Z,97504.47
2023-01-26T23:55:44.264Z,97495.00
2023-01-26T23:58:12.239Z,97493.09
